sensor_id;sensor_type;location;lat;lon;timestamp;pressure;altitude;pressure_sealevel;temperature;humidity
4834;BME280;12895;51.064;7.028;2023-07-29T00:00:05;99988.75;;;20.01;87.18
4834;BME280;12895;51.064;7.028;2023-07-29T00:02:56;99991.78;;;20.11;86.21
4834;BME280;12895;51.064;7.028;2023-07-29T00:05:51;99993.06;;;20.10;86.32
4834;BME280;12895;51.064;7.028;2023-07-29T00:08:36;99985.06;;;20.06;86.63
4834;BME280;12895;51.064;7.028;2023-07-29T00:11:21;99983.88;;;20.02;86.82
4834;BME280;12895;51.064;7.028;2023-07-29T00:14:06;99984.09;;;20.04;86.33
4834;BME280;12895;51.064;7.028;2023-07-29T00:16:51;99981.63;;;19.93;87.16
4834;BME280;12895;51.064;7.028;2023-07-29T00:19:36;99973.75;;;19.99;86.86
4834;BME280;12895;51.064;7.028;2023-07-29T00:22:23;99976.38;;;19.97;86.60
4834;BME280;12895;51.064;7.028;2023-07-29T00:25:08;99962.53;;;19.99;86.77
4834;BME280;12895;51.064;7.028;2023-07-29T00:27:55;99969.34;;;20.11;85.99
4834;BME280;12895;51.064;7.028;2023-07-29T00:30:41;99963.84;;;19.98;86.70
4834;BME280;12895;51.064;7.028;2023-07-29T00:33:32;99951.13;;;19.97;86.41
4834;BME280;12895;51.064;7.028;2023-07-29T00:36:17;99954.31;;;20.01;86.42
4834;BME280;12895;51.064;7.028;2023-07-29T00:39:05;99947.97;;;20.00;86.15
4834;BME280;12895;51.064;7.028;2023-07-29T00:41:50;99955.06;;;19.94;86.65
4834;BME280;12895;51.064;7.028;2023-07-29T00:44:37;99955.25;;;19.96;86.71
4834;BME280;12895;51.064;7.028;2023-07-29T00:47:22;99964.03;;;20.00;86.63
4834;BME280;12895;51.064;7.028;2023-07-29T00:50:13;99960.84;;;19.96;87.20
4834;BME280;12895;51.064;7.028;2023-07-29T00:52:58;99952.03;;;19.84;87.73
4834;BME280;12895;51.064;7.028;2023-07-29T00:55:58;99950.94;;;19.87;87.65
4834;BME280;12895;51.064;7.028;2023-07-29T00:58:43;99953.16;;;19.89;87.15
4834;BME280;12895;51.064;7.028;2023-07-29T01:01:28;99960.63;;;19.86;87.41
4834;BME280;12895;51.064;7.028;2023-07-29T01:04:13;99947.91;;;19.85;87.59
4834;BME280;12895;51.064;7.028;2023-07-29T01:07:01;99949.41;;;19.86;87.79
4834;BME280;12895;51.064;7.028;2023-07-29T01:09:50;99944.56;;;19.87;87.31
4834;BME280;12895;51.064;7.028;2023-07-29T01:12:42;99932.25;;;19.97;86.78
4834;BME280;12895;51.064;7.028;2023-07-29T01:15:31;99933.56;;;19.96;86.59
4834;BME280;12895;51.064;7.028;2023-07-29T01:18:22;99931.84;;;19.86;87.11
4834;BME280;12895;51.064;7.028;2023-07-29T01:21:08;99933.34;;;19.79;87.34
4834;BME280;12895;51.064;7.028;2023-07-29T01:24:01;99930.72;;;19.74;87.79
4834;BME280;12895;51.064;7.028;2023-07-29T01:26:46;99926.25;;;19.78;87.69
4834;BME280;12895;51.064;7.028;2023-07-29T01:29:31;99922.50;;;19.76;87.98
4834;BME280;12895;51.064;7.028;2023-07-29T01:32:17;99916.09;;;19.68;88.01
4834;BME280;12895;51.064;7.028;2023-07-29T01:35:08;99923.22;;;19.69;88.35
4834;BME280;12895;51.064;7.028;2023-07-29T01:37:56;99931.81;;;19.71;87.88
4834;BME280;12895;51.064;7.028;2023-07-29T01:40:54;99931.81;;;19.71;88.04
4834;BME280;12895;51.064;7.028;2023-07-29T01:43:39;99927.69;;;19.72;88.13
4834;BME280;12895;51.064;7.028;2023-07-29T01:46:31;99924.34;;;19.66;88.25
4834;BME280;12895;51.064;7.028;2023-07-29T01:49:16;99923.97;;;19.69;88.27
4834;BME280;12895;51.064;7.028;2023-07-29T01:52:02;99924.16;;;19.71;88.02
4834;BME280;12895;51.064;7.028;2023-07-29T01:54:47;99921.00;;;19.75;88.23
4834;BME280;12895;51.064;7.028;2023-07-29T01:57:36;99918.94;;;19.75;87.73
4834;BME280;12895;51.064;7.028;2023-07-29T02:00:21;99916.88;;;19.76;87.65
4834;BME280;12895;51.064;7.028;2023-07-29T02:03:06;99918.56;;;19.79;88.08
4834;BME280;12895;51.064;7.028;2023-07-29T02:05:52;99918.75;;;19.81;87.78
4834;BME280;12895;51.064;7.028;2023-07-29T02:08:37;99912.41;;;19.73;88.19
4834;BME280;12895;51.064;7.028;2023-07-29T02:11:24;99913.13;;;19.73;88.30
4834;BME280;12895;51.064;7.028;2023-07-29T02:14:13;99912.78;;;19.77;88.42
4834;BME280;12895;51.064;7.028;2023-07-29T02:16:58;99902.88;;;19.76;88.30
4834;BME280;12895;51.064;7.028;2023-07-29T02:19:44;99910.16;;;19.79;88.39
4834;BME280;12895;51.064;7.028;2023-07-29T02:22:29;99900.06;;;19.68;89.06
4834;BME280;12895;51.064;7.028;2023-07-29T02:25:17;99904.53;;;19.64;89.46
4834;BME280;12895;51.064;7.028;2023-07-29T02:28:03;99901.38;;;19.75;88.85
4834;BME280;12895;51.064;7.028;2023-07-29T02:30:54;99898.94;;;19.71;89.18
4834;BME280;12895;51.064;7.028;2023-07-29T02:33:53;99916.53;;;19.79;88.73
4834;BME280;12895;51.064;7.028;2023-07-29T02:36:43;99904.94;;;19.83;88.28
4834;BME280;12895;51.064;7.028;2023-07-29T02:39:30;99903.44;;;19.82;88.46
4834;BME280;12895;51.064;7.028;2023-07-29T02:42:15;99901.53;;;19.69;89.44
4834;BME280;12895;51.064;7.028;2023-07-29T02:45:01;99904.72;;;19.81;88.75
4834;BME280;12895;51.064;7.028;2023-07-29T02:47:48;99906.03;;;19.80;88.95
4834;BME280;12895;51.064;7.028;2023-07-29T02:50:34;99905.25;;;19.72;88.77
4834;BME280;12895;51.064;7.028;2023-07-29T02:53:19;99915.56;;;19.77;89.09
4834;BME280;12895;51.064;7.028;2023-07-29T02:56:04;99915.75;;;19.71;89.43
4834;BME280;12895;51.064;7.028;2023-07-29T02:58:50;99912.75;;;19.69;89.64
4834;BME280;12895;51.064;7.028;2023-07-29T03:01:36;99913.84;;;19.66;90.00
4834;BME280;12895;51.064;7.028;2023-07-29T03:04:24;99909.38;;;19.71;89.65
4834;BME280;12895;51.064;7.028;2023-07-29T03:07:09;99908.66;;;19.70;89.72
4834;BME280;12895;51.064;7.028;2023-07-29T03:09:55;99904.72;;;19.66;90.23
4834;BME280;12895;51.064;7.028;2023-07-29T03:12:41;99904.53;;;19.64;90.51
4834;BME280;12895;51.064;7.028;2023-07-29T03:15:27;99902.69;;;19.74;89.92
4834;BME280;12895;51.064;7.028;2023-07-29T03:18:12;99909.72;;;19.60;90.86
4834;BME280;12895;51.064;7.028;2023-07-29T03:20:59;99909.19;;;19.69;90.35
4834;BME280;12895;51.064;7.028;2023-07-29T03:23:44;99913.50;;;19.70;90.44
4834;BME280;12895;51.064;7.028;2023-07-29T03:26:29;99910.72;;;19.77;89.79
4834;BME280;12895;51.064;7.028;2023-07-29T03:29:14;99906.78;;;19.73;90.37
4834;BME280;12895;51.064;7.028;2023-07-29T03:32:00;99909.25;;;19.84;89.93
4834;BME280;12895;51.064;7.028;2023-07-29T03:34:45;99906.06;;;19.87;89.78
4834;BME280;12895;51.064;7.028;2023-07-29T03:37:31;99899.88;;;19.74;90.06
4834;BME280;12895;51.064;7.028;2023-07-29T03:40:17;99900.06;;;19.76;89.88
4834;BME280;12895;51.064;7.028;2023-07-29T03:43:02;99890.34;;;19.77;89.85
4834;BME280;12895;51.064;7.028;2023-07-29T03:45:47;99890.31;;;19.69;90.43
4834;BME280;12895;51.064;7.028;2023-07-29T03:48:32;99890.69;;;19.66;90.46
4834;BME280;12895;51.064;7.028;2023-07-29T03:51:18;99887.88;;;19.66;90.70
4834;BME280;12895;51.064;7.028;2023-07-29T03:54:04;99882.09;;;19.64;91.08
4834;BME280;12895;51.064;7.028;2023-07-29T03:56:50;99881.69;;;19.60;91.33
4834;BME280;12895;51.064;7.028;2023-07-29T03:59:35;99871.59;;;19.57;91.43
4834;BME280;12895;51.064;7.028;2023-07-29T04:02:20;99886.22;;;19.63;91.15
4834;BME280;12895;51.064;7.028;2023-07-29T04:05:06;99887.66;;;19.57;91.83
4834;BME280;12895;51.064;7.028;2023-07-29T04:07:52;99896.47;;;19.53;91.91
4834;BME280;12895;51.064;7.028;2023-07-29T04:10:39;99902.59;;;19.52;92.36
4834;BME280;12895;51.064;7.028;2023-07-29T04:13:24;99905.44;;;19.59;91.75
4834;BME280;12895;51.064;7.028;2023-07-29T04:16:09;99906.91;;;19.60;91.64
4834;BME280;12895;51.064;7.028;2023-07-29T04:18:54;99922.06;;;19.57;92.06
4834;BME280;12895;51.064;7.028;2023-07-29T04:21:39;99918.72;;;19.59;92.02
4834;BME280;12895;51.064;7.028;2023-07-29T04:24:24;99931.06;;;19.63;91.87
4834;BME280;12895;51.064;7.028;2023-07-29T04:27:11;99920.22;;;19.67;91.30
4834;BME280;12895;51.064;7.028;2023-07-29T04:29:57;99914.63;;;19.67;90.98
4834;BME280;12895;51.064;7.028;2023-07-29T04:32:42;99927.69;;;19.72;90.81
4834;BME280;12895;51.064;7.028;2023-07-29T04:35:29;99923.63;;;19.73;90.54
4834;BME280;12895;51.064;7.028;2023-07-29T04:38:14;99918.19;;;19.75;89.89
4834;BME280;12895;51.064;7.028;2023-07-29T04:40:59;99917.22;;;19.65;90.15
4834;BME280;12895;51.064;7.028;2023-07-29T04:43:47;99918.72;;;19.66;90.31
4834;BME280;12895;51.064;7.028;2023-07-29T04:46:33;99922.06;;;19.57;90.80
4834;BME280;12895;51.064;7.028;2023-07-29T04:49:18;99935.16;;;19.62;90.23
4834;BME280;12895;51.064;7.028;2023-07-29T04:52:04;99949.38;;;19.64;90.16
4834;BME280;12895;51.064;7.028;2023-07-29T04:54:49;99946.03;;;19.73;88.83
4834;BME280;12895;51.064;7.028;2023-07-29T04:57:34;99944.53;;;19.72;89.08
4834;BME280;12895;51.064;7.028;2023-07-29T05:00:23;99946.41;;;19.77;88.91
4834;BME280;12895;51.064;7.028;2023-07-29T05:03:08;99947.72;;;19.76;88.73
4834;BME280;12895;51.064;7.028;2023-07-29T05:05:55;99940.09;;;19.84;88.60
4834;BME280;12895;51.064;7.028;2023-07-29T05:08:42;99939.50;;;19.85;88.10
4834;BME280;12895;51.064;7.028;2023-07-29T05:11:27;99928.13;;;19.91;87.21
4834;BME280;12895;51.064;7.028;2023-07-29T05:14:12;99928.88;;;19.99;86.36
4834;BME280;12895;51.064;7.028;2023-07-29T05:16:59;99930.94;;;19.98;85.82
4834;BME280;12895;51.064;7.028;2023-07-29T05:19:44;99930.91;;;19.91;85.91
4834;BME280;12895;51.064;7.028;2023-07-29T05:22:29;99939.72;;;19.95;86.33
4834;BME280;12895;51.064;7.028;2023-07-29T05:25:15;99931.50;;;19.89;86.33
4834;BME280;12895;51.064;7.028;2023-07-29T05:28:03;99930.72;;;19.89;85.80
4834;BME280;12895;51.064;7.028;2023-07-29T05:30:48;99930.72;;;19.89;86.21
4834;BME280;12895;51.064;7.028;2023-07-29T05:33:34;99929.47;;;19.97;86.02
4834;BME280;12895;51.064;7.028;2023-07-29T05:36:20;99935.97;;;20.00;85.84
4834;BME280;12895;51.064;7.028;2023-07-29T05:39:07;99946.09;;;20.03;86.17
4834;BME280;12895;51.064;7.028;2023-07-29T05:41:52;99957.72;;;20.07;86.04
4834;BME280;12895;51.064;7.028;2023-07-29T05:44:38;99960.69;;;20.01;86.14
4834;BME280;12895;51.064;7.028;2023-07-29T05:47:23;99966.66;;;19.98;86.65
4834;BME280;12895;51.064;7.028;2023-07-29T05:50:11;99961.59;;;19.89;86.72
4834;BME280;12895;51.064;7.028;2023-07-29T05:52:56;99964.75;;;19.78;86.20
4834;BME280;12895;51.064;7.028;2023-07-29T05:55:41;99970.00;;;19.89;85.29
4834;BME280;12895;51.064;7.028;2023-07-29T05:58:27;99984.06;;;19.96;84.51
4834;BME280;12895;51.064;7.028;2023-07-29T06:01:12;99986.66;;;19.94;84.49
4834;BME280;12895;51.064;7.028;2023-07-29T06:03:57;99991.56;;;20.09;84.42
4834;BME280;12895;51.064;7.028;2023-07-29T06:06:47;99995.34;;;20.19;82.28
4834;BME280;12895;51.064;7.028;2023-07-29T06:09:32;99991.81;;;20.26;82.21
4834;BME280;12895;51.064;7.028;2023-07-29T06:12:17;100010.13;;;20.27;81.08
4834;BME280;12895;51.064;7.028;2023-07-29T06:15:04;100008.28;;;20.22;81.21
4834;BME280;12895;51.064;7.028;2023-07-29T06:17:53;100006.22;;;20.30;80.46
4834;BME280;12895;51.064;7.028;2023-07-29T06:20:38;100011.09;;;20.22;80.68
4834;BME280;12895;51.064;7.028;2023-07-29T06:23:25;100011.09;;;20.22;79.71
4834;BME280;12895;51.064;7.028;2023-07-29T06:26:11;100015.38;;;20.23;79.80
4834;BME280;12895;51.064;7.028;2023-07-29T06:28:56;100023.25;;;20.32;78.81
4834;BME280;12895;51.064;7.028;2023-07-29T06:31:41;100034.47;;;20.32;79.30
4834;BME280;12895;51.064;7.028;2023-07-29T06:34:27;100038.47;;;20.01;79.96
4834;BME280;12895;51.064;7.028;2023-07-29T06:37:12;100022.44;;;20.09;80.06
4834;BME280;12895;51.064;7.028;2023-07-29T06:39:59;100028.81;;;20.17;80.34
4834;BME280;12895;51.064;7.028;2023-07-29T06:42:44;100028.00;;;20.01;80.42
4834;BME280;12895;51.064;7.028;2023-07-29T06:45:30;100033.53;;;19.79;80.87
4834;BME280;12895;51.064;7.028;2023-07-29T06:48:16;100033.94;;;19.83;81.26
4834;BME280;12895;51.064;7.028;2023-07-29T06:51:03;100027.81;;;19.92;81.09
4834;BME280;12895;51.064;7.028;2023-07-29T06:53:49;100034.34;;;19.94;80.86
4834;BME280;12895;51.064;7.028;2023-07-29T06:56:36;100025.84;;;20.15;79.52
4834;BME280;12895;51.064;7.028;2023-07-29T06:59:21;100025.75;;;20.00;80.55
4834;BME280;12895;51.064;7.028;2023-07-29T07:02:08;100022.06;;;20.05;80.14
4834;BME280;12895;51.064;7.028;2023-07-29T07:04:53;100030.31;;;20.18;80.86
4834;BME280;12895;51.064;7.028;2023-07-29T07:07:38;100031.28;;;20.20;80.33
4834;BME280;12895;51.064;7.028;2023-07-29T07:10:23;100035.81;;;20.46;79.07
4834;BME280;12895;51.064;7.028;2023-07-29T07:13:10;100039.00;;;20.65;77.98
4834;BME280;12895;51.064;7.028;2023-07-29T07:15:55;100030.78;;;20.74;77.86
4834;BME280;12895;51.064;7.028;2023-07-29T07:18:40;100036.00;;;20.78;78.70
4834;BME280;12895;51.064;7.028;2023-07-29T07:21:25;100028.16;;;20.84;76.36
4834;BME280;12895;51.064;7.028;2023-07-29T07:24:11;100031.91;;;20.79;76.33
4834;BME280;12895;51.064;7.028;2023-07-29T07:26:56;100031.16;;;20.71;75.84
4834;BME280;12895;51.064;7.028;2023-07-29T07:29:42;100040.88;;;20.77;75.15
4834;BME280;12895;51.064;7.028;2023-07-29T07:32:28;100042.00;;;20.67;75.44
4834;BME280;12895;51.064;7.028;2023-07-29T07:35:13;100043.72;;;21.00;75.37
4834;BME280;12895;51.064;7.028;2023-07-29T07:37:58;100051.78;;;21.03;73.17
4834;BME280;12895;51.064;7.028;2023-07-29T07:40:52;100045.75;;;21.37;69.09
4834;BME280;12895;51.064;7.028;2023-07-29T07:43:37;100055.09;;;21.47;70.19
4834;BME280;12895;51.064;7.028;2023-07-29T07:46:24;100052.44;;;21.56;68.36
4834;BME280;12895;51.064;7.028;2023-07-29T07:49:09;100044.94;;;21.44;69.01
4834;BME280;12895;51.064;7.028;2023-07-29T07:51:55;100055.09;;;21.47;68.17
4834;BME280;12895;51.064;7.028;2023-07-29T07:54:40;100054.34;;;21.39;67.32
4834;BME280;12895;51.064;7.028;2023-07-29T07:57:25;100054.75;;;21.28;67.33
4834;BME280;12895;51.064;7.028;2023-07-29T08:00:11;100060.00;;;21.24;66.62
4834;BME280;12895;51.064;7.028;2023-07-29T08:03:02;100062.22;;;21.48;66.27
4834;BME280;12895;51.064;7.028;2023-07-29T08:05:47;100048.31;;;21.50;65.87
4834;BME280;12895;51.064;7.028;2023-07-29T08:08:33;100065.19;;;21.50;66.25
4834;BME280;12895;51.064;7.028;2023-07-29T08:11:19;100067.03;;;21.55;67.05
4834;BME280;12895;51.064;7.028;2023-07-29T08:14:04;100060.31;;;21.43;67.28
4834;BME280;12895;51.064;7.028;2023-07-29T08:16:49;100064.84;;;21.46;68.15
4834;BME280;12895;51.064;7.028;2023-07-29T08:19:36;100066.38;;;21.09;68.77
4834;BME280;12895;51.064;7.028;2023-07-29T08:22:21;100058.88;;;21.12;69.74
4834;BME280;12895;51.064;7.028;2023-07-29T08:25:07;100056.06;;;21.27;68.09
4834;BME280;12895;51.064;7.028;2023-07-29T08:27:52;100046.13;;;21.26;68.32
4834;BME280;12895;51.064;7.028;2023-07-29T08:30:37;100048.75;;;21.16;68.35
4834;BME280;12895;51.064;7.028;2023-07-29T08:33:22;100056.19;;;21.59;68.57
4834;BME280;12895;51.064;7.028;2023-07-29T08:36:11;100062.66;;;21.84;65.66
4834;BME280;12895;51.064;7.028;2023-07-29T08:38:56;100052.31;;;21.94;65.57
4834;BME280;12895;51.064;7.028;2023-07-29T08:41:43;100052.38;;;21.79;64.67
4834;BME280;12895;51.064;7.028;2023-07-29T08:44:33;100054.13;;;22.14;63.79
4834;BME280;12895;51.064;7.028;2023-07-29T08:47:20;100056.03;;;22.36;62.64
4834;BME280;12895;51.064;7.028;2023-07-29T08:50:05;100061.59;;;22.51;60.31
4834;BME280;12895;51.064;7.028;2023-07-29T08:52:52;100066.78;;;22.30;60.77
4834;BME280;12895;51.064;7.028;2023-07-29T08:55:38;100074.44;;;22.37;62.78
4834;BME280;12895;51.064;7.028;2023-07-29T08:58:24;100066.97;;;22.64;60.53
4834;BME280;12895;51.064;7.028;2023-07-29T09:01:09;100071.03;;;22.46;61.50
4834;BME280;12895;51.064;7.028;2023-07-29T09:03:54;100069.03;;;22.31;61.74
4834;BME280;12895;51.064;7.028;2023-07-29T09:06:39;100074.34;;;22.20;61.03
4834;BME280;12895;51.064;7.028;2023-07-29T09:09:28;100072.13;;;22.11;60.62
4834;BME280;12895;51.064;7.028;2023-07-29T09:12:13;100070.56;;;22.25;61.01
4834;BME280;12895;51.064;7.028;2023-07-29T09:14:58;100079.75;;;22.25;61.14
4834;BME280;12895;51.064;7.028;2023-07-29T09:17:43;100072.41;;;22.30;62.38
4834;BME280;12895;51.064;7.028;2023-07-29T09:20:29;100080.53;;;22.58;61.18
4834;BME280;12895;51.064;7.028;2023-07-29T09:23:14;100078.47;;;22.82;58.96
4834;BME280;12895;51.064;7.028;2023-07-29T09:26:02;100079.50;;;22.94;58.42
4834;BME280;12895;51.064;7.028;2023-07-29T09:28:51;100070.19;;;22.84;59.07
4834;BME280;12895;51.064;7.028;2023-07-29T09:31:36;100083.91;;;22.80;59.09
4834;BME280;12895;51.064;7.028;2023-07-29T09:34:21;100073.88;;;22.94;58.28
4834;BME280;12895;51.064;7.028;2023-07-29T09:37:06;100076.31;;;22.66;60.25
4834;BME280;12895;51.064;7.028;2023-07-29T09:39:52;100078.69;;;23.01;58.57
4834;BME280;12895;51.064;7.028;2023-07-29T09:42:38;100070.03;;;22.82;58.46
4834;BME280;12895;51.064;7.028;2023-07-29T09:45:24;100063.28;;;23.02;58.73
4834;BME280;12895;51.064;7.028;2023-07-29T09:48:09;100071.66;;;23.34;59.49
4834;BME280;12895;51.064;7.028;2023-07-29T09:50:54;100075.97;;;23.52;59.14
4834;BME280;12895;51.064;7.028;2023-07-29T09:53:40;100071.16;;;23.79;60.52
4834;BME280;12895;51.064;7.028;2023-07-29T09:56:26;100081.81;;;23.88;57.75
4834;BME280;12895;51.064;7.028;2023-07-29T09:59:12;100080.13;;;24.02;58.13
4834;BME280;12895;51.064;7.028;2023-07-29T10:01:58;100069.84;;;23.97;56.95
4834;BME280;12895;51.064;7.028;2023-07-29T10:04:43;100065.38;;;23.60;57.99
4834;BME280;12895;51.064;7.028;2023-07-29T10:07:30;100075.94;;;23.18;59.44
4834;BME280;12895;51.064;7.028;2023-07-29T10:10:16;100075.97;;;23.11;59.67
4834;BME280;12895;51.064;7.028;2023-07-29T10:13:01;100076.63;;;23.26;60.41
4834;BME280;12895;51.064;7.028;2023-07-29T10:15:50;100074.13;;;23.47;59.19
4834;BME280;12895;51.064;7.028;2023-07-29T10:18:36;100071.66;;;23.34;59.45
4834;BME280;12895;51.064;7.028;2023-07-29T10:21:22;100076.31;;;23.56;58.88
4834;BME280;12895;51.064;7.028;2023-07-29T10:24:09;100075.63;;;23.31;56.33
4834;BME280;12895;51.064;7.028;2023-07-29T10:27:01;100073.59;;;23.66;58.98
4834;BME280;12895;51.064;7.028;2023-07-29T10:29:46;100074.66;;;23.70;58.44
4834;BME280;12895;51.064;7.028;2023-07-29T10:32:33;100087.25;;;23.35;59.07
4834;BME280;12895;51.064;7.028;2023-07-29T10:35:19;100073.09;;;22.94;59.97
4834;BME280;12895;51.064;7.028;2023-07-29T10:38:05;100079.34;;;22.92;60.11
4834;BME280;12895;51.064;7.028;2023-07-29T10:40:51;100081.00;;;22.95;61.76
4834;BME280;12895;51.064;7.028;2023-07-29T10:43:36;100077.13;;;23.08;63.11
4834;BME280;12895;51.064;7.028;2023-07-29T10:46:22;100083.94;;;23.05;62.31
4834;BME280;12895;51.064;7.028;2023-07-29T10:49:09;100087.84;;;22.85;61.81
4834;BME280;12895;51.064;7.028;2023-07-29T10:51:55;100094.22;;;22.85;64.79
4834;BME280;12895;51.064;7.028;2023-07-29T10:54:43;100092.97;;;22.79;65.57
4834;BME280;12895;51.064;7.028;2023-07-29T10:57:32;100089.59;;;22.49;67.11
4834;BME280;12895;51.064;7.028;2023-07-29T11:00:18;100091.72;;;22.65;65.38
4834;BME280;12895;51.064;7.028;2023-07-29T11:06:34;100078.56;;;22.67;65.14
4834;BME280;12895;51.064;7.028;2023-07-29T11:10:16;100073.97;;;22.79;65.72
4834;BME280;12895;51.064;7.028;2023-07-29T11:13:52;100068.00;;;23.00;62.34
4834;BME280;12895;51.064;7.028;2023-07-29T11:17:04;100070.66;;;23.22;62.84
4834;BME280;12895;51.064;7.028;2023-07-29T11:19:53;100075.31;;;23.44;61.94
4834;BME280;12895;51.064;7.028;2023-07-29T11:27:53;100063.50;;;24.76;58.50
4834;BME280;12895;51.064;7.028;2023-07-29T11:40:22;100068.91;;;25.37;55.10
4834;BME280;12895;51.064;7.028;2023-07-29T11:53:47;100057.44;;;25.44;54.29
4834;BME280;12895;51.064;7.028;2023-07-29T11:56:37;100057.09;;;25.21;54.69
4834;BME280;12895;51.064;7.028;2023-07-29T11:59:22;100056.34;;;24.75;56.77
4834;BME280;12895;51.064;7.028;2023-07-29T12:02:11;100061.56;;;24.52;57.69
4834;BME280;12895;51.064;7.028;2023-07-29T12:04:57;100068.09;;;24.45;59.62
4834;BME280;12895;51.064;7.028;2023-07-29T12:07:43;100055.31;;;24.80;58.87
4834;BME280;12895;51.064;7.028;2023-07-29T12:10:33;100052.81;;;24.84;57.64
4834;BME280;12895;51.064;7.028;2023-07-29T12:13:19;100051.09;;;25.17;55.80
4834;BME280;12895;51.064;7.028;2023-07-29T12:16:10;100049.47;;;25.14;58.27
4834;BME280;12895;51.064;7.028;2023-07-29T12:19:04;100054.00;;;25.46;56.47
4834;BME280;12895;51.064;7.028;2023-07-29T12:21:51;100051.22;;;25.93;55.72
4834;BME280;12895;51.064;7.028;2023-07-29T12:24:38;100052.34;;;26.28;54.81
4834;BME280;12895;51.064;7.028;2023-07-29T12:27:29;100046.84;;;26.70;54.20
4834;BME280;12895;51.064;7.028;2023-07-29T12:30:27;100047.94;;;26.46;53.20
4834;BME280;12895;51.064;7.028;2023-07-29T12:33:29;100045.88;;;26.37;54.84
4834;BME280;12895;51.064;7.028;2023-07-29T12:36:15;100030.66;;;26.42;54.38
4834;BME280;12895;51.064;7.028;2023-07-29T12:39:04;100030.59;;;26.21;54.16
4834;BME280;12895;51.064;7.028;2023-07-29T12:41:55;100029.09;;;26.20;54.99
4834;BME280;12895;51.064;7.028;2023-07-29T12:44:43;100033.88;;;26.08;55.51
4834;BME280;12895;51.064;7.028;2023-07-29T12:47:28;100032.69;;;26.11;54.88
4834;BME280;12895;51.064;7.028;2023-07-29T12:50:13;100032.88;;;26.53;53.24
4834;BME280;12895;51.064;7.028;2023-07-29T12:53:00;100034.59;;;26.77;49.48
4834;BME280;12895;51.064;7.028;2023-07-29T12:55:45;100033.25;;;26.78;53.65
4834;BME280;12895;51.064;7.028;2023-07-29T12:58:30;100041.19;;;26.70;50.24
4834;BME280;12895;51.064;7.028;2023-07-29T13:01:17;100044.09;;;26.51;53.33
4834;BME280;12895;51.064;7.028;2023-07-29T13:04:03;100017.78;;;26.20;52.22
4834;BME280;12895;51.064;7.028;2023-07-29T13:06:48;100009.72;;;26.07;53.33
4834;BME280;12895;51.064;7.028;2023-07-29T13:09:33;100017.81;;;25.63;53.71
4834;BME280;12895;51.064;7.028;2023-07-29T13:12:19;100021.56;;;25.47;54.97
4834;BME280;12895;51.064;7.028;2023-07-29T13:15:05;100021.88;;;24.86;56.58
4834;BME280;12895;51.064;7.028;2023-07-29T13:17:52;100025.06;;;24.73;55.36
4834;BME280;12895;51.064;7.028;2023-07-29T13:20:37;100030.88;;;24.39;55.37
4834;BME280;12895;51.064;7.028;2023-07-29T13:23:23;100036.22;;;24.35;58.13
4834;BME280;12895;51.064;7.028;2023-07-29T13:26:08;100030.78;;;24.20;57.25
4834;BME280;12895;51.064;7.028;2023-07-29T13:28:53;100039.09;;;24.18;58.22
4834;BME280;12895;51.064;7.028;2023-07-29T13:31:39;100039.63;;;23.73;60.64
4834;BME280;12895;51.064;7.028;2023-07-29T13:34:26;100046.44;;;23.70;60.13
4834;BME280;12895;51.064;7.028;2023-07-29T13:37:11;100040.22;;;23.55;61.65
4834;BME280;12895;51.064;7.028;2023-07-29T13:39:58;100047.47;;;23.48;62.12
4834;BME280;12895;51.064;7.028;2023-07-29T13:42:43;100036.81;;;23.22;62.56
4834;BME280;12895;51.064;7.028;2023-07-29T13:45:29;100030.81;;;23.18;62.97
4834;BME280;12895;51.064;7.028;2023-07-29T13:48:14;100035.91;;;22.95;65.53
4834;BME280;12895;51.064;7.028;2023-07-29T13:51:00;100036.09;;;22.73;65.64
4834;BME280;12895;51.064;7.028;2023-07-29T13:53:46;100037.53;;;22.81;67.12
4834;BME280;12895;51.064;7.028;2023-07-29T13:56:31;100038.19;;;22.89;64.52
4834;BME280;12895;51.064;7.028;2023-07-29T13:59:16;100041.78;;;22.66;68.51
4834;BME280;12895;51.064;7.028;2023-07-29T14:02:02;100047.22;;;22.32;70.56
4834;BME280;12895;51.064;7.028;2023-07-29T14:04:47;100055.94;;;22.19;70.92
4834;BME280;12895;51.064;7.028;2023-07-29T14:07:34;100067.91;;;22.27;70.41
4834;BME280;12895;51.064;7.028;2023-07-29T14:10:19;100073.41;;;22.57;72.33
4834;BME280;12895;51.064;7.028;2023-07-29T14:13:04;100059.59;;;22.92;69.69
4834;BME280;12895;51.064;7.028;2023-07-29T14:15:49;100047.88;;;23.03;68.76
4834;BME280;12895;51.064;7.028;2023-07-29T14:18:34;100043.19;;;23.23;67.83
4834;BME280;12895;51.064;7.028;2023-07-29T14:21:20;100043.63;;;23.53;67.77
4834;BME280;12895;51.064;7.028;2023-07-29T14:24:06;100045.75;;;23.96;66.18
4834;BME280;12895;51.064;7.028;2023-07-29T14:26:51;100048.66;;;24.32;64.67
4834;BME280;12895;51.064;7.028;2023-07-29T14:29:37;100060.66;;;24.50;61.99
4834;BME280;12895;51.064;7.028;2023-07-29T14:32:22;100055.84;;;25.05;61.71
4834;BME280;12895;51.064;7.028;2023-07-29T14:35:10;100052.22;;;26.66;57.16
4834;BME280;12895;51.064;7.028;2023-07-29T14:37:58;100050.78;;;28.44;49.21
4834;BME280;12895;51.064;7.028;2023-07-29T14:40:47;100060.22;;;29.15;47.29
4834;BME280;12895;51.064;7.028;2023-07-29T14:43:32;100060.06;;;28.12;50.38
4834;BME280;12895;51.064;7.028;2023-07-29T14:46:17;100058.19;;;27.31;49.16
4834;BME280;12895;51.064;7.028;2023-07-29T14:49:02;100072.09;;;26.47;50.40
4834;BME280;12895;51.064;7.028;2023-07-29T14:51:48;100073.53;;;26.17;53.02
4834;BME280;12895;51.064;7.028;2023-07-29T14:54:33;100064.91;;;25.87;55.37
4834;BME280;12895;51.064;7.028;2023-07-29T14:57:20;100054.13;;;25.38;56.96
4834;BME280;12895;51.064;7.028;2023-07-29T15:00:06;100054.13;;;25.38;56.27
4834;BME280;12895;51.064;7.028;2023-07-29T15:02:53;100042.00;;;25.00;58.14
4834;BME280;12895;51.064;7.028;2023-07-29T15:05:38;100052.41;;;25.07;58.13
4834;BME280;12895;51.064;7.028;2023-07-29T15:08:24;100052.94;;;25.41;58.01
4834;BME280;12895;51.064;7.028;2023-07-29T15:11:10;100056.25;;;25.85;57.09
4834;BME280;12895;51.064;7.028;2023-07-29T15:13:56;100052.25;;;25.88;55.69
4834;BME280;12895;51.064;7.028;2023-07-29T15:16:42;100062.78;;;25.59;55.67